Time;durP1;ratioP1;P1;durP2;ratioP2;P2;SDS_P1;SDS_P2;PMS_P1;PMS_P2;Temp;Humidity;BMP_temperature;BMP_pressure;BME280_temperature;BME280_humidity;BME280_pressure;Samples;Min_cycle;Max_cycle;Signal;HPM_P1;HPM_P2
2022/12/30 00:00:38;;;;;;;1.38;0.63;;;;;;;;;;4965761;28;20045;-77
2022/12/30 00:03:03;;;;;;;;;;;;;;;;;;4981437;28;20621;-77
2022/12/30 00:05:33;;;;;;;0.50;0.50;;;;;;;;;;4963545;28;19942;-75
2022/12/30 00:08:01;;;;;;;2.80;0.52;;;;;;;;;;4967572;28;20035;-77
2022/12/30 00:10:27;;;;;;;2.80;0.60;;;;;;;;;;4963939;28;20028;-75
2022/12/30 00:33:16;;;;;;;1.35;0.80;;;;;;;;;;4948879;29;20045;-76
2022/12/30 00:35:17;;;;;;;1.88;0.70;;;;;;;;;;4952795;28;20049;-76
2022/12/30 00:37:43;;;;;;;0.70;0.65;;;;;;;;;;4970958;28;20497;-76
2022/12/30 00:40:10;;;;;;;2.20;0.68;;;;;;;;;;4970914;28;20031;-76
2022/12/30 00:45:21;;;;;;;1.23;0.60;;;;;;;;;;4969090;28;20496;-76
2022/12/30 00:47:47;;;;;;;3.30;1.02;;;;;;;;;;4961612;28;20031;-77
2022/12/30 00:58:30;;;;;;;2.40;0.50;;;;;;;;;;4965257;28;20073;-76
2022/12/30 01:00:56;;;;;;;0.60;0.60;;;;;;;;;;4959662;28;20475;-75
2022/12/30 01:03:24;;;;;;;0.60;0.60;;;;;;;;;;4973029;28;20106;-77
2022/12/30 01:05:50;;;;;;;0.70;0.70;;;;;;;;;;4965056;28;20031;-76
2022/12/30 01:08:15;;;;;;;2.00;0.90;;;;;;;;;;4957943;28;20461;-77
2022/12/30 01:10:40;;;;;;;0.68;0.60;;;;;;;;;;4965168;28;20031;-76
2022/12/30 01:13:07;;;;;;;1.88;0.60;;;;;;;;;;4965795;28;20022;-76
2022/12/30 01:15:34;;;;;;;1.30;0.60;;;;;;;;;;4959821;28;20031;-76
2022/12/30 01:17:59;;;;;;;1.58;0.90;;;;;;;;;;4962974;28;20035;-76
2022/12/30 01:20:27;;;;;;;0.70;0.70;;;;;;;;;;4968338;28;20489;-76
2022/12/30 01:22:53;;;;;;;1.98;0.80;;;;;;;;;;4964942;28;20397;-75
2022/12/30 01:25:18;;;;;;;1.50;0.80;;;;;;;;;;4960939;28;20029;-77
2022/12/30 01:27:54;;;;;;;1.90;0.80;;;;;;;;;;4963196;28;20042;-77
2022/12/30 01:30:20;;;;;;;2.47;1.17;;;;;;;;;;4959566;28;20034;-77
2022/12/30 01:32:46;;;;;;;4.82;1.08;;;;;;;;;;4973382;28;20019;-77
2022/12/30 01:35:12;;;;;;;1.48;0.80;;;;;;;;;;4970810;28;20379;-76
2022/12/30 01:37:37;;;;;;;1.38;1.27;;;;;;;;;;4964928;28;20081;-75
2022/12/30 01:40:03;;;;;;;2.15;0.80;;;;;;;;;;4959445;28;20072;-76
2022/12/30 01:42:30;;;;;;;0.70;0.70;;;;;;;;;;4965252;28;20122;-76
2022/12/30 01:45:04;;;;;;;1.00;0.85;;;;;;;;;;4963624;28;20034;-75
2022/12/30 01:47:41;;;;;;;2.38;0.63;;;;;;;;;;4963002;28;20490;-75
2022/12/30 01:50:14;;;;;;;0.73;0.73;;;;;;;;;;4961678;28;20430;-76
2022/12/30 01:52:45;;;;;;;1.38;0.90;;;;;;;;;;4984642;28;20037;-77
2022/12/30 01:55:22;;;;;;;1.00;0.63;;;;;;;;;;4962877;28;20019;-77
2022/12/30 01:57:52;;;;;;;0.80;0.80;;;;;;;;;;4970960;28;20386;-76
2022/12/30 02:00:18;;;;;;;;;;;;;;;;;;4979550;28;20031;-76
2022/12/30 02:02:43;;;;;;;1.55;0.65;;;;;;;;;;4970289;28;19928;-75
2022/12/30 02:05:10;;;;;;;0.80;0.80;;;;;;;;;;4976438;28;20030;-76
2022/12/30 02:07:45;;;;;;;0.75;0.60;;;;;;;;;;4961380;28;20053;-77
2022/12/30 02:10:12;;;;;;;1.58;0.95;;;;;;;;;;4974500;28;20031;-76
2022/12/30 02:12:37;;;;;;;3.10;1.30;;;;;;;;;;4957248;28;20089;-75
2022/12/30 02:15:04;;;;;;;1.55;1.10;;;;;;;;;;4955327;28;20479;-76
2022/12/30 02:17:57;;;;;;;1.10;0.98;;;;;;;;;;4969156;28;20054;-75
2022/12/30 02:20:37;;;;;;;1.02;0.82;;;;;;;;;;4963482;28;20082;-75
2022/12/30 02:23:39;;;;;;;0.80;0.80;;;;;;;;;;4966970;28;20018;-76
2022/12/30 02:26:52;;;;;;;1.05;0.90;;;;;;;;;;4954352;28;20031;-75
2022/12/30 02:29:35;;;;;;;0.90;0.90;;;;;;;;;;4920214;28;20060;-76
2022/12/30 02:32:14;;;;;;;2.40;0.80;;;;;;;;;;4967942;28;20200;-76
2022/12/30 02:34:50;;;;;;;2.45;0.60;;;;;;;;;;4962609;28;20043;-76
2022/12/30 02:37:29;;;;;;;1.80;0.80;;;;;;;;;;4966781;28;20066;-75
2022/12/30 02:40:18;;;;;;;0.77;0.77;;;;;;;;;;4953494;28;20042;-76
2022/12/30 02:45:54;;;;;;;0.85;0.85;;;;;;;;;;4962600;28;20046;-76
2022/12/30 02:48:23;;;;;;;0.85;0.80;;;;;;;;;;4965986;28;20027;-76
2022/12/30 02:53:40;;;;;;;0.75;0.75;;;;;;;;;;4960341;28;20046;-75
2022/12/30 02:56:08;;;;;;;0.75;0.75;;;;;;;;;;4980655;28;20023;-76
2022/12/30 02:58:39;;;;;;;1.13;0.77;;;;;;;;;;4967984;28;20493;-77
2022/12/30 03:04:19;;;;;;;3.78;1.50;;;;;;;;;;4963860;28;20114;-76
2022/12/30 03:07:13;;;;;;;2.05;1.17;;;;;;;;;;4965164;28;20117;-76
2022/12/30 03:13:29;;;;;;;1.33;0.73;;;;;;;;;;4960742;28;20035;-77
2022/12/30 03:15:57;;;;;;;1.40;0.85;;;;;;;;;;4955957;28;20177;-76
2022/12/30 03:18:23;;;;;;;2.40;0.85;;;;;;;;;;4964912;28;20470;-76
2022/12/30 03:20:51;;;;;;;2.00;0.65;;;;;;;;;;4979144;28;20026;-76
2022/12/30 03:28:48;;;;;;;1.77;1.00;;;;;;;;;;4962713;28;20058;-74
2022/12/30 03:31:18;;;;;;;1.25;0.73;;;;;;;;;;4965395;28;20514;-75
2022/12/30 03:33:43;;;;;;;;;;;;;;;;;;4962028;28;20039;-76
2022/12/30 03:36:32;;;;;;;0.88;0.60;;;;;;;;;;4958090;28;20296;-76
2022/12/30 03:39:23;;;;;;;1.63;0.70;;;;;;;;;;4962761;28;20031;-76
2022/12/30 03:41:50;;;;;;;2.25;0.93;;;;;;;;;;4967951;28;20034;-76
2022/12/30 03:44:20;;;;;;;1.20;0.63;;;;;;;;;;4955350;28;20031;-76
2022/12/30 03:46:47;;;;;;;0.50;0.50;;;;;;;;;;4966451;28;20030;-77
2022/12/30 03:49:13;;;;;;;1.10;0.77;;;;;;;;;;4955746;28;20094;-76
2022/12/30 03:51:38;;;;;;;2.67;0.70;;;;;;;;;;4965598;28;20491;-77
2022/12/30 03:54:04;;;;;;;1.38;0.60;;;;;;;;;;4960707;28;20109;-75
2022/12/30 03:56:29;;;;;;;0.70;0.70;;;;;;;;;;4961772;28;20026;-76
2022/12/30 03:58:54;;;;;;;1.40;0.75;;;;;;;;;;4968242;28;20033;-76
2022/12/30 04:01:22;;;;;;;0.90;0.90;;;;;;;;;;4966135;28;20502;-75
2022/12/30 04:03:48;;;;;;;1.48;1.00;;;;;;;;;;4958221;28;20490;-76
2022/12/30 04:06:13;;;;;;;0.93;0.90;;;;;;;;;;4970985;28;20130;-75
2022/12/30 04:08:39;;;;;;;1.45;0.70;;;;;;;;;;4957397;28;20026;-76
2022/12/30 04:11:04;;;;;;;1.38;0.80;;;;;;;;;;4977036;28;20393;-76
2022/12/30 04:13:30;;;;;;;1.02;0.80;;;;;;;;;;4963825;28;20374;-74
2022/12/30 04:15:56;;;;;;;2.28;0.95;;;;;;;;;;4961816;28;20162;-76
2022/12/30 04:18:22;;;;;;;1.52;0.98;;;;;;;;;;4955973;28;20548;-74
2022/12/30 04:20:48;;;;;;;0.80;0.80;;;;;;;;;;4964403;28;20031;-75
2022/12/30 04:23:14;;;;;;;3.17;0.88;;;;;;;;;;4957388;28;20027;-75
2022/12/30 04:25:39;;;;;;;2.08;1.20;;;;;;;;;;4976736;28;20026;-74
2022/12/30 04:28:05;;;;;;;1.10;1.00;;;;;;;;;;4960093;28;20394;-75
2022/12/30 04:30:32;;;;;;;0.77;0.77;;;;;;;;;;4962640;28;20027;-75
2022/12/30 04:32:59;;;;;;;1.38;0.70;;;;;;;;;;4961537;28;20035;-75
2022/12/30 04:35:27;;;;;;;1.13;0.88;;;;;;;;;;4958029;28;20026;-76
2022/12/30 04:37:53;;;;;;;1.10;1.00;;;;;;;;;;4970052;28;20034;-77
2022/12/30 04:40:18;;;;;;;2.42;1.50;;;;;;;;;;4955729;28;20015;-76
2022/12/30 04:42:46;;;;;;;1.00;0.75;;;;;;;;;;4963423;28;20026;-76
2022/12/30 04:45:15;;;;;;;1.00;1.00;;;;;;;;;;4968304;28;20030;-78
2022/12/30 04:47:40;;;;;;;0.80;0.80;;;;;;;;;;4973384;28;20042;-76
2022/12/30 04:50:07;;;;;;;1.58;0.90;;;;;;;;;;4972472;28;20023;-76
2022/12/30 04:52:35;;;;;;;1.75;1.30;;;;;;;;;;4958299;28;20052;-75
2022/12/30 04:55:03;;;;;;;1.63;1.10;;;;;;;;;;4960375;28;20030;-76
2022/12/30 04:57:29;;;;;;;1.17;0.90;;;;;;;;;;4972781;28;20422;-75
2022/12/30 04:59:54;;;;;;;0.90;0.90;;;;;;;;;;4962887;28;20062;-76
2022/12/30 05:02:22;;;;;;;1.67;0.80;;;;;;;;;;4964596;28;20022;-77
2022/12/30 05:04:47;;;;;;;1.20;0.93;;;;;;;;;;4961459;28;20094;-76
2022/12/30 05:07:13;;;;;;;0.80;0.80;;;;;;;;;;4965640;28;20486;-76
2022/12/30 05:09:38;;;;;;;1.02;0.90;;;;;;;;;;4967436;28;20027;-76
2022/12/30 05:12:04;;;;;;;1.38;1.27;;;;;;;;;;4960950;28;20030;-76
2022/12/30 05:14:29;;;;;;;1.98;1.10;;;;;;;;;;4963174;28;20027;-75
2022/12/30 05:16:54;;;;;;;1.45;1.10;;;;;;;;;;4968019;28;20031;-75
2022/12/30 05:19:20;;;;;;;1.13;1.02;;;;;;;;;;4959971;28;20070;-77
2022/12/30 05:21:45;;;;;;;1.15;1.05;;;;;;;;;;4963806;28;20516;-76
2022/12/30 05:26:55;;;;;;;4.90;1.50;;;;;;;;;;4963680;28;20070;-76
2022/12/30 05:29:25;;;;;;;1.20;1.10;;;;;;;;;;4983950;28;20417;-75
2022/12/30 05:31:51;;;;;;;0.88;0.88;;;;;;;;;;4972367;28;20023;-76
2022/12/30 05:34:16;;;;;;;1.88;1.00;;;;;;;;;;4965532;28;20532;-76
2022/12/30 05:36:41;;;;;;;8.20;1.30;;;;;;;;;;4982194;28;20092;-75
2022/12/30 05:39:07;;;;;;;1.88;1.00;;;;;;;;;;4958792;28;20050;-76
2022/12/30 05:41:35;;;;;;;1.52;0.70;;;;;;;;;;4958371;28;20155;-76
2022/12/30 05:44:00;;;;;;;0.70;0.70;;;;;;;;;;4978328;28;20038;-76
2022/12/30 05:46:25;;;;;;;1.10;1.00;;;;;;;;;;4971560;28;20019;-76
2022/12/30 05:48:51;;;;;;;1.42;0.95;;;;;;;;;;4973379;28;20031;-76
2022/12/30 05:51:16;;;;;;;1.10;0.90;;;;;;;;;;4969840;28;20085;-76
2022/12/30 05:53:42;;;;;;;0.93;0.90;;;;;;;;;;4958811;28;20033;-76
2022/12/30 05:56:07;;;;;;;0.90;0.90;;;;;;;;;;4959396;28;20466;-76
2022/12/30 05:58:33;;;;;;;1.02;1.00;;;;;;;;;;4966855;28;20023;-77
2022/12/30 06:00:58;;;;;;;1.33;1.05;;;;;;;;;;4965716;28;20450;-77
2022/12/30 06:03:28;;;;;;;1.45;1.08;;;;;;;;;;4957862;28;20027;-76
2022/12/30 06:06:00;;;;;;;0.95;0.82;;;;;;;;;;4957728;28;20022;-76
2022/12/30 06:08:26;;;;;;;2.35;1.10;;;;;;;;;;4965973;28;20035;-75
2022/12/30 06:10:53;;;;;;;1.13;1.00;;;;;;;;;;4961572;28;20164;-78
2022/12/30 06:13:19;;;;;;;1.77;1.00;;;;;;;;;;4963119;28;20034;-79
2022/12/30 06:15:44;;;;;;;1.30;1.15;;;;;;;;;;4973246;28;20523;-78
2022/12/30 06:18:10;;;;;;;1.75;0.98;;;;;;;;;;4985228;28;20026;-75
2022/12/30 06:20:38;;;;;;;1.98;1.20;;;;;;;;;;4969538;28;20023;-78
2022/12/30 06:23:04;;;;;;;1.67;1.30;;;;;;;;;;4978096;28;20030;-78
2022/12/30 06:25:31;;;;;;;1.27;1.17;;;;;;;;;;4961532;28;20020;-77
2022/12/30 06:27:57;;;;;;;2.22;1.00;;;;;;;;;;4974630;28;20605;-78
2022/12/30 06:30:22;;;;;;;0.98;0.98;;;;;;;;;;4974684;28;20054;-77
2022/12/30 06:32:48;;;;;;;1.23;1.10;;;;;;;;;;4971330;28;20037;-78
2022/12/30 06:35:13;;;;;;;1.63;1.17;;;;;;;;;;4962657;28;20034;-78
2022/12/30 06:37:38;;;;;;;2.38;1.00;;;;;;;;;;4974163;28;20065;-77
2022/12/30 06:40:08;;;;;;;1.20;1.10;;;;;;;;;;4963826;28;20038;-78
2022/12/30 06:42:33;;;;;;;1.20;1.10;;;;;;;;;;4969090;28;20026;-78
2022/12/30 06:45:01;;;;;;;1.30;1.17;;;;;;;;;;4967589;28;20049;-77
2022/12/30 06:47:26;;;;;;;1.27;1.17;;;;;;;;;;4969629;28;20382;-78
2022/12/30 06:49:52;;;;;;;2.67;1.05;;;;;;;;;;4963153;28;20061;-78
2022/12/30 06:52:17;;;;;;;1.35;1.00;;;;;;;;;;4971876;28;20601;-77
2022/12/30 06:54:47;;;;;;;2.78;1.10;;;;;;;;;;4967566;28;20031;-78
2022/12/30 06:57:16;;;;;;;1.10;1.00;;;;;;;;;;4960546;28;20026;-78
2022/12/30 06:59:41;;;;;;;1.25;1.15;;;;;;;;;;4969637;28;20035;-77
2022/12/30 07:02:10;;;;;;;1.85;1.00;;;;;;;;;;4967952;28;20153;-78
2022/12/30 07:04:35;;;;;;;1.70;0.95;;;;;;;;;;4959705;28;20682;-77
2022/12/30 07:07:01;;;;;;;1.08;1.00;;;;;;;;;;4972635;28;20027;-78
2022/12/30 07:09:26;;;;;;;1.15;1.00;;;;;;;;;;4981486;28;20110;-77
2022/12/30 07:11:51;;;;;;;1.70;1.27;;;;;;;;;;4969446;28;20393;-77
2022/12/30 07:14:17;;;;;;;0.88;0.88;;;;;;;;;;4961497;28;20043;-78
2022/12/30 07:16:45;;;;;;;2.65;1.10;;;;;;;;;;4967112;28;20071;-77
2022/12/30 07:19:13;;;;;;;1.50;1.08;;;;;;;;;;4957239;28;20065;-76
2022/12/30 07:21:38;;;;;;;1.30;1.20;;;;;;;;;;4967934;28;20024;-78
2022/12/30 07:24:04;;;;;;;2.03;1.20;;;;;;;;;;4982632;28;20027;-78
2022/12/30 07:26:32;;;;;;;1.55;1.10;;;;;;;;;;4963196;28;20068;-78
2022/12/30 07:29:00;;;;;;;1.70;1.17;;;;;;;;;;4965402;28;20030;-78
2022/12/30 07:31:25;;;;;;;1.20;1.10;;;;;;;;;;4960420;28;20023;-78
2022/12/30 07:33:52;;;;;;;3.60;1.67;;;;;;;;;;4970610;28;20102;-78
2022/12/30 07:36:17;;;;;;;1.20;1.10;;;;;;;;;;4970880;28;20026;-78
2022/12/30 07:38:45;;;;;;;1.38;1.10;;;;;;;;;;4964472;28;20062;-78
2022/12/30 07:41:11;;;;;;;1.30;1.20;;;;;;;;;;4967724;28;20062;-78
2022/12/30 07:43:37;;;;;;;0.93;0.93;;;;;;;;;;4965433;28;20030;-78
2022/12/30 07:46:09;;;;;;;1.33;1.08;;;;;;;;;;4971780;28;20038;-77
2022/12/30 07:48:35;;;;;;;1.45;1.10;;;;;;;;;;4959415;28;20115;-78
2022/12/30 07:51:12;;;;;;;2.70;1.33;;;;;;;;;;4961433;28;20033;-78
2022/12/30 07:53:38;;;;;;;1.23;1.02;;;;;;;;;;4968572;28;20370;-78
2022/12/30 07:56:05;;;;;;;1.48;1.27;;;;;;;;;;4970507;28;20031;-78
2022/12/30 07:58:31;;;;;;;2.08;1.10;;;;;;;;;;4968869;28;20031;-77
2022/12/30 08:01:04;;;;;;;1.15;1.02;;;;;;;;;;4972059;28;20089;-78
2022/12/30 08:03:29;;;;;;;1.98;1.30;;;;;;;;;;4985786;28;20114;-77
2022/12/30 08:05:54;;;;;;;2.33;1.33;;;;;;;;;;4969667;28;20418;-78
2022/12/30 08:08:20;;;;;;;2.33;1.33;;;;;;;;;;4968843;28;20058;-78
2022/12/30 08:10:55;;;;;;;3.47;1.58;;;;;;;;;;4970470;28;20030;-78
2022/12/30 08:13:23;;;;;;;1.60;1.40;;;;;;;;;;4967841;28;20524;-77
2022/12/30 08:15:52;;;;;;;2.25;1.10;;;;;;;;;;4966877;28;20031;-78
2022/12/30 08:18:17;;;;;;;2.72;1.40;;;;;;;;;;4962675;28;20386;-77
2022/12/30 08:20:43;;;;;;;2.00;1.40;;;;;;;;;;4976012;28;20058;-76
2022/12/30 08:23:08;;;;;;;1.40;1.20;;;;;;;;;;4967056;28;20030;-78
2022/12/30 08:25:34;;;;;;;4.22;1.23;;;;;;;;;;4963184;28;20493;-77
2022/12/30 08:27:59;;;;;;;1.55;1.40;;;;;;;;;;4975550;28;20418;-77
2022/12/30 08:30:25;;;;;;;1.60;1.50;;;;;;;;;;4989640;28;20034;-78
2022/12/30 08:32:51;;;;;;;2.40;1.27;;;;;;;;;;4989678;28;20339;-78
2022/12/30 08:35:16;;;;;;;1.67;1.33;;;;;;;;;;4973513;28;20018;-78
2022/12/30 08:37:42;;;;;;;3.08;1.55;;;;;;;;;;4976558;28;20493;-77
2022/12/30 08:40:08;;;;;;;3.42;1.48;;;;;;;;;;4975248;28;20054;-78
2022/12/30 08:42:37;;;;;;;2.67;1.40;;;;;;;;;;4972769;28;20022;-79
2022/12/30 08:45:07;;;;;;;1.85;1.48;;;;;;;;;;4968474;28;20034;-77
2022/12/30 08:47:33;;;;;;;2.20;1.50;;;;;;;;;;4967659;28;20031;-77
2022/12/30 08:50:01;;;;;;;2.78;1.20;;;;;;;;;;4974582;28;20027;-77
2022/12/30 08:52:29;;;;;;;1.88;1.35;;;;;;;;;;4969644;28;20236;-78
2022/12/30 08:54:57;;;;;;;3.92;2.15;;;;;;;;;;4985786;28;20442;-77
2022/12/30 08:57:23;;;;;;;2.75;1.80;;;;;;;;;;4986727;28;20039;-77
2022/12/30 08:59:48;;;;;;;4.50;1.40;;;;;;;;;;4989291;28;21571;-77
2022/12/30 09:02:14;;;;;;;2.88;1.98;;;;;;;;;;4974727;28;20053;-79
2022/12/30 09:04:40;;;;;;;1.65;1.40;;;;;;;;;;4972809;28;20037;-77
2022/12/30 09:07:05;;;;;;;2.08;1.00;;;;;;;;;;4970220;28;20465;-77
2022/12/30 09:09:31;;;;;;;1.98;1.30;;;;;;;;;;4970472;28;20030;-77
2022/12/30 09:11:57;;;;;;;2.15;1.10;;;;;;;;;;4967712;28;20023;-77
2022/12/30 09:14:25;;;;;;;1.25;1.15;;;;;;;;;;4969243;28;20341;-76
2022/12/30 09:16:53;;;;;;;2.30;1.38;;;;;;;;;;4971791;28;20486;-77
2022/12/30 09:19:18;;;;;;;1.17;1.08;;;;;;;;;;4966598;28;20102;-77
2022/12/30 09:21:43;;;;;;;1.35;1.20;;;;;;;;;;4966444;28;20046;-77
2022/12/30 09:24:12;;;;;;;1.88;1.23;;;;;;;;;;4967750;28;20098;-77
2022/12/30 09:26:39;;;;;;;2.95;1.98;;;;;;;;;;4968901;28;20545;-77
2022/12/30 09:29:04;;;;;;;4.60;2.13;;;;;;;;;;4965339;28;20558;-77
2022/12/30 09:31:30;;;;;;;1.60;1.10;;;;;;;;;;4966215;28;20089;-76
2022/12/30 09:33:55;;;;;;;1.65;1.25;;;;;;;;;;4974684;28;20066;-73
2022/12/30 09:36:21;;;;;;;2.15;1.05;;;;;;;;;;4975438;28;20058;-77
2022/12/30 09:38:49;;;;;;;3.53;1.08;;;;;;;;;;4965935;28;20102;-78
2022/12/30 09:43:14;;;;;;;3.00;1.25;;;;;;;;;;4969788;28;20031;-77
2022/12/30 09:44:30;;;;;;;1.30;0.93;;;;;;;;;;4974421;28;20097;-79
2022/12/30 09:47:14;;;;;;;1.08;0.95;;;;;;;;;;4973061;28;20023;-77
2022/12/30 09:49:47;;;;;;;1.20;1.10;;;;;;;;;;4967357;28;20113;-79
2022/12/30 09:52:19;;;;;;;1.52;1.10;;;;;;;;;;4972926;28;20035;-77
2022/12/30 09:55:13;;;;;;;2.63;1.70;;;;;;;;;;4970140;28;20035;-80
2022/12/30 09:57:40;;;;;;;2.65;1.80;;;;;;;;;;4987582;28;20027;-80
2022/12/30 10:00:07;;;;;;;1.35;1.25;;;;;;;;;;4970690;28;20034;-78
2022/12/30 10:02:52;;;;;;;2.03;1.35;;;;;;;;;;4967342;28;20018;-77
2022/12/30 10:05:32;;;;;;;0.90;0.90;;;;;;;;;;4968820;28;20041;-78
2022/12/30 10:08:21;;;;;;;1.25;1.15;;;;;;;;;;4974672;28;20037;-78
2022/12/30 10:11:27;;;;;;;1.13;0.93;;;;;;;;;;4959291;28;20101;-79
2022/12/30 10:13:55;;;;;;;1.73;1.20;;;;;;;;;;4972160;28;20490;-78
2022/12/30 10:16:43;;;;;;;1.35;1.00;;;;;;;;;;4972773;28;20058;-79
2022/12/30 10:19:17;;;;;;;1.67;1.30;;;;;;;;;;4972670;28;20029;-79
2022/12/30 10:21:50;;;;;;;2.22;1.40;;;;;;;;;;4972832;28;20134;-78
2022/12/30 10:24:18;;;;;;;1.45;1.23;;;;;;;;;;4971564;28;20019;-78
2022/12/30 10:26:52;;;;;;;1.00;1.00;;;;;;;;;;4972153;28;20054;-79
2022/12/30 10:29:24;;;;;;;2.25;1.27;;;;;;;;;;4974715;28;20023;-78
2022/12/30 10:31:55;;;;;;;1.20;1.05;;;;;;;;;;4971907;28;20034;-80
2022/12/30 10:34:27;;;;;;;1.45;1.15;;;;;;;;;;4973218;28;20019;-77
2022/12/30 10:37:05;;;;;;;1.98;1.25;;;;;;;;;;4969464;28;20058;-77
2022/12/30 10:39:40;;;;;;;1.02;0.93;;;;;;;;;;4973818;28;20027;-77
2022/12/30 10:42:24;;;;;;;1.65;1.10;;;;;;;;;;4983621;28;20019;-78
2022/12/30 10:45:17;;;;;;;1.48;1.10;;;;;;;;;;4987364;28;20065;-78
2022/12/30 10:47:46;;;;;;;1.45;1.35;;;;;;;;;;4985778;28;20123;-78
2022/12/30 10:50:26;;;;;;;1.65;1.13;;;;;;;;;;4969196;28;20082;-77
2022/12/30 10:52:52;;;;;;;1.58;0.90;;;;;;;;;;4971565;28;20031;-79
2022/12/30 10:55:29;;;;;;;1.67;1.30;;;;;;;;;;4972323;28;20027;-78
2022/12/30 10:57:59;;;;;;;0.70;0.70;;;;;;;;;;4974437;28;20026;-78
2022/12/30 11:00:27;;;;;;;2.90;1.48;;;;;;;;;;4972823;28;20045;-77
2022/12/30 11:03:00;;;;;;;0.90;0.75;;;;;;;;;;4982422;28;20378;-76
2022/12/30 11:05:39;;;;;;;0.90;0.90;;;;;;;;;;4983492;28;20053;-76
2022/12/30 11:08:19;;;;;;;4.32;2.13;;;;;;;;;;4967968;28;20034;-75
2022/12/30 11:11:00;;;;;;;1.75;1.17;;;;;;;;;;4966202;28;20097;-76
2022/12/30 11:16:10;;;;;;;1.70;0.80;;;;;;;;;;4969753;28;20038;-76
2022/12/30 11:18:36;;;;;;;0.60;0.60;;;;;;;;;;4967213;28;20384;-76
2022/12/30 11:21:02;;;;;;;1.48;0.70;;;;;;;;;;4971290;28;20153;-78
2022/12/30 11:23:34;;;;;;;0.88;0.73;;;;;;;;;;4987037;28;20027;-79
2022/12/30 11:26:21;;;;;;;2.97;1.13;;;;;;;;;;4967277;28;20031;-73
2022/12/30 11:28:52;;;;;;;1.45;0.90;;;;;;;;;;4971571;28;20043;-76
2022/12/30 11:31:18;;;;;;;0.80;0.80;;;;;;;;;;4965583;28;20023;-77
2022/12/30 11:33:58;;;;;;;0.80;0.70;;;;;;;;;;4966432;28;20404;-77
2022/12/30 11:36:26;;;;;;;1.70;1.00;;;;;;;;;;4968640;28;20026;-77
2022/12/30 11:38:52;;;;;;;1.17;0.80;;;;;;;;;;4966472;28;20419;-77
2022/12/30 11:41:18;;;;;;;1.10;0.80;;;;;;;;;;4970242;28;20034;-77
2022/12/30 11:43:48;;;;;;;1.20;0.80;;;;;;;;;;4968960;28;20142;-77
2022/12/30 11:46:20;;;;;;;1.02;0.82;;;;;;;;;;4964600;28;20370;-79
2022/12/30 11:48:57;;;;;;;1.02;0.80;;;;;;;;;;4965419;28;20030;-76
2022/12/30 11:51:47;;;;;;;1.52;0.90;;;;;;;;;;4970751;28;20498;-78
2022/12/30 11:54:16;;;;;;;0.60;0.60;;;;;;;;;;4979836;28;20074;-75
2022/12/30 11:56:52;;;;;;;1.02;0.90;;;;;;;;;;4966664;28;20031;-76
2022/12/30 11:59:24;;;;;;;0.80;0.80;;;;;;;;;;4968688;28;20058;-77
2022/12/30 12:01:56;;;;;;;2.20;0.85;;;;;;;;;;4981152;28;20034;-76
2022/12/30 12:04:32;;;;;;;1.35;0.80;;;;;;;;;;4964397;28;20027;-76
2022/12/30 12:07:00;;;;;;;1.00;0.90;;;;;;;;;;4961655;28;20037;-76
2022/12/30 12:09:36;;;;;;;0.80;0.73;;;;;;;;;;4968525;28;20512;-77
2022/12/30 12:12:13;;;;;;;1.23;0.80;;;;;;;;;;4983810;28;20114;-75
2022/12/30 12:15:01;;;;;;;1.35;0.73;;;;;;;;;;4971761;28;20605;-77
2022/12/30 12:17:41;;;;;;;1.20;0.80;;;;;;;;;;4968151;28;20031;-78
2022/12/30 12:20:19;;;;;;;1.67;0.65;;;;;;;;;;4971483;28;20038;-79
2022/12/30 12:22:58;;;;;;;2.00;1.20;;;;;;;;;;4968009;28;20030;-78
2022/12/30 12:25:33;;;;;;;8.63;3.50;;;;;;;;;;4972350;28;20026;-79
2022/12/30 12:27:58;;;;;;;4.90;1.65;;;;;;;;;;4988690;28;20078;-77
2022/12/30 12:30:33;;;;;;;1.40;0.90;;;;;;;;;;4975044;28;20523;-77
2022/12/30 12:33:46;;;;;;;3.72;1.33;;;;;;;;;;4985500;28;20042;-77
2022/12/30 12:36:34;;;;;;;6.55;2.92;;;;;;;;;;4951460;28;20053;-78
2022/12/30 12:39:02;;;;;;;0.77;0.70;;;;;;;;;;4971960;28;20057;-78
2022/12/30 12:41:39;;;;;;;1.95;1.58;;;;;;;;;;4980402;28;20474;-77
2022/12/30 12:44:37;;;;;;;1.20;1.05;;;;;;;;;;4967717;28;20031;-79
2022/12/30 12:47:18;;;;;;;1.33;0.82;;;;;;;;;;4971119;28;20057;-78
2022/12/30 12:50:04;;;;;;;1.42;1.00;;;;;;;;;;4973682;28;20039;-79
2022/12/30 12:52:51;;;;;;;1.25;0.80;;;;;;;;;;4973051;28;20023;-79
2022/12/30 12:55:35;;;;;;;0.90;0.90;;;;;;;;;;4988178;28;20406;-77
2022/12/30 12:58:12;;;;;;;2.20;1.08;;;;;;;;;;4970264;28;20066;-77
2022/12/30 13:00:47;;;;;;;1.30;0.90;;;;;;;;;;4967970;28;20054;-78
2022/12/30 13:03:24;;;;;;;1.33;1.02;;;;;;;;;;4976570;28;20023;-77
2022/12/30 13:06:06;;;;;;;1.85;0.90;;;;;;;;;;4970880;28;20035;-78
2022/12/30 13:08:47;;;;;;;1.02;0.90;;;;;;;;;;4969664;28;20126;-77
2022/12/30 13:11:32;;;;;;;2.90;1.50;;;;;;;;;;4970071;28;20689;-76
2022/12/30 13:14:10;;;;;;;1.20;0.98;;;;;;;;;;4957631;28;20046;-78
2022/12/30 13:16:46;;;;;;;1.55;1.10;;;;;;;;;;4973451;28;20034;-76
2022/12/30 13:19:19;;;;;;;2.60;1.60;;;;;;;;;;4973033;28;20031;-79
2022/12/30 13:21:48;;;;;;;1.20;1.10;;;;;;;;;;4974745;28;20502;-78
2022/12/30 13:24:38;;;;;;;1.23;1.00;;;;;;;;;;4975584;28;20039;-79
2022/12/30 13:27:07;;;;;;;3.97;1.77;;;;;;;;;;4970976;28;20553;-76
2022/12/30 13:29:36;;;;;;;4.47;2.70;;;;;;;;;;4968060;28;20551;-76
2022/12/30 13:32:29;;;;;;;4.13;2.20;;;;;;;;;;4972559;28;20031;-78
2022/12/30 13:35:24;;;;;;;4.05;2.08;;;;;;;;;;4978262;28;20049;-78
2022/12/30 13:38:04;;;;;;;1.52;1.38;;;;;;;;;;4978136;28;20051;-77
2022/12/30 13:40:44;;;;;;;4.35;2.00;;;;;;;;;;4970931;28;20031;-77
2022/12/30 13:43:40;;;;;;;3.95;2.33;;;;;;;;;;4972880;28;20065;-78
2022/12/30 13:46:18;;;;;;;6.57;3.05;;;;;;;;;;4989876;28;20046;-76
2022/12/30 13:48:53;;;;;;;9.02;4.07;;;;;;;;;;4974753;28;20058;-76
2022/12/30 13:51:21;;;;;;;7.55;2.95;;;;;;;;;;4969755;28;20482;-77
2022/12/30 13:53:57;;;;;;;5.20;2.92;;;;;;;;;;4976340;28;20045;-77
2022/12/30 13:56:38;;;;;;;4.03;1.83;;;;;;;;;;4989073;28;20073;-77
2022/12/30 13:59:05;;;;;;;5.05;3.30;;;;;;;;;;4978228;28;20031;-77
2022/12/30 14:01:39;;;;;;;5.60;2.58;;;;;;;;;;4973707;28;20026;-77
2022/12/30 14:04:10;;;;;;;4.32;2.30;;;;;;;;;;4973790;28;20506;-79
2022/12/30 14:06:45;;;;;;;6.38;2.20;;;;;;;;;;4973385;28;20035;-77
2022/12/30 14:09:18;;;;;;;2.13;1.50;;;;;;;;;;4970249;28;20028;-77
2022/12/30 14:12:02;;;;;;;3.10;2.35;;;;;;;;;;4972042;28;20118;-79
2022/12/30 14:14:29;;;;;;;4.38;1.33;;;;;;;;;;4975070;28;20022;-78
2022/12/30 14:16:56;;;;;;;1.98;1.02;;;;;;;;;;4970765;28;20023;-77
2022/12/30 14:19:36;;;;;;;1.52;1.42;;;;;;;;;;4967084;28;20031;-77
2022/12/30 14:22:02;;;;;;;1.50;1.23;;;;;;;;;;4969194;28;20572;-76
2022/12/30 14:24:30;;;;;;;1.83;1.40;;;;;;;;;;4966708;28;20082;-77
2022/12/30 14:26:57;;;;;;;2.28;1.50;;;;;;;;;;4973205;28;20035;-77
2022/12/30 14:29:28;;;;;;;2.58;1.20;;;;;;;;;;4973940;28;20165;-76
2022/12/30 14:31:56;;;;;;;1.17;1.00;;;;;;;;;;4987107;28;20275;-78
2022/12/30 14:34:34;;;;;;;2.83;1.08;;;;;;;;;;4975297;28;20023;-76
2022/12/30 14:37:17;;;;;;;3.08;1.00;;;;;;;;;;4974590;28;20082;-77
2022/12/30 14:39:46;;;;;;;6.00;2.20;;;;;;;;;;4983994;28;20031;-79
2022/12/30 14:42:30;;;;;;;1.40;1.20;;;;;;;;;;4972164;28;20026;-78
2022/12/30 14:44:58;;;;;;;1.65;1.20;;;;;;;;;;4987641;28;20030;-79
2022/12/30 14:47:45;;;;;;;1.20;1.10;;;;;;;;;;4974020;28;20031;-78
2022/12/30 14:50:17;;;;;;;2.42;1.30;;;;;;;;;;4970908;28;20031;-78
2022/12/30 14:53:09;;;;;;;2.13;1.50;;;;;;;;;;4969950;28;20406;-76
2022/12/30 14:55:41;;;;;;;4.35;2.45;;;;;;;;;;4968701;28;20507;-79
2022/12/30 14:58:18;;;;;;;2.25;1.20;;;;;;;;;;4971259;28;20393;-77
2022/12/30 15:00:48;;;;;;;2.08;0.90;;;;;;;;;;4973059;28;20039;-79
2022/12/30 15:03:17;;;;;;;1.35;1.10;;;;;;;;;;4970479;28;20113;-78
2022/12/30 15:05:53;;;;;;;1.20;1.07;;;;;;;;;;4971852;28;20068;-79
2022/12/30 15:08:19;;;;;;;1.40;1.30;;;;;;;;;;4973932;28;20042;-80
2022/12/30 15:10:56;;;;;;;1.55;1.45;;;;;;;;;;4984730;28;20088;-80
2022/12/30 15:13:39;;;;;;;2.22;1.63;;;;;;;;;;4987558;28;20031;-77
2022/12/30 15:16:15;;;;;;;2.03;1.40;;;;;;;;;;4972213;28;20035;-77
2022/12/30 15:18:47;;;;;;;1.80;1.38;;;;;;;;;;4987641;28;20031;-80
2022/12/30 15:21:20;;;;;;;2.05;1.30;;;;;;;;;;4971434;28;20453;-79
2022/12/30 15:23:58;;;;;;;1.58;1.02;;;;;;;;;;4970933;28;20548;-78
2022/12/30 15:26:27;;;;;;;1.20;1.10;;;;;;;;;;4972156;28;20031;-79
2022/12/30 15:28:54;;;;;;;1.60;1.10;;;;;;;;;;4974280;28;20090;-80
2022/12/30 15:31:23;;;;;;;2.45;1.30;;;;;;;;;;4975559;28;20082;-79
2022/12/30 15:33:56;;;;;;;1.10;0.95;;;;;;;;;;4974970;28;20027;-79
2022/12/30 15:36:24;;;;;;;3.20;1.42;;;;;;;;;;4973322;28;20034;-79
2022/12/30 15:38:51;;;;;;;1.40;1.15;;;;;;;;;;4971828;28;20046;-79
2022/12/30 15:41:25;;;;;;;1.83;1.40;;;;;;;;;;4987003;28;20034;-79
2022/12/30 15:43:52;;;;;;;1.70;1.10;;;;;;;;;;4973512;28;20027;-79
2022/12/30 15:46:34;;;;;;;1.85;0.90;;;;;;;;;;4973460;28;20045;-79
2022/12/30 15:49:18;;;;;;;1.83;1.30;;;;;;;;;;4968600;28;20027;-80
2022/12/30 15:51:51;;;;;;;2.20;1.40;;;;;;;;;;4970427;28;20034;-80
2022/12/30 15:54:22;;;;;;;2.53;1.60;;;;;;;;;;4970388;28;20037;-78
2022/12/30 15:56:48;;;;;;;1.50;1.25;;;;;;;;;;4985491;28;20030;-79
2022/12/30 15:59:43;;;;;;;2.92;1.58;;;;;;;;;;4970438;28;20034;-78
2022/12/30 16:02:18;;;;;;;1.92;1.45;;;;;;;;;;4967790;28;20636;-78